sensor_id;sensor_type;location;lat;lon;timestamp;pressure;altitude;pressure_sealevel;temperature
74536;BMP180;63013;51.104;-115.370;2022-12-24T00:01:02;86375.60;;;22.30
74536;BMP180;63013;51.104;-115.370;2022-12-24T00:03:30;86372.00;;;22.30
74536;BMP180;63013;51.104;-115.370;2022-12-24T00:05:57;86353.40;;;22.30
74536;BMP180;63013;51.104;-115.370;2022-12-24T00:08:24;86381.80;;;22.28
74536;BMP180;63013;51.104;-115.370;2022-12-24T00:10:53;86388.60;;;22.20
74536;BMP180;63013;51.104;-115.370;2022-12-24T00:13:20;86381.40;;;22.20
74536;BMP180;63013;51.104;-115.370;2022-12-24T00:15:48;86377.40;;;22.20
74536;BMP180;63013;51.104;-115.370;2022-12-24T00:18:16;86388.40;;;22.20
74536;BMP180;63013;51.104;-115.370;2022-12-24T00:20:49;86389.40;;;22.12
74536;BMP180;63013;51.104;-115.370;2022-12-24T00:23:18;86385.80;;;22.10
74536;BMP180;63013;51.104;-115.370;2022-12-24T00:25:45;86379.40;;;22.10
74536;BMP180;63013;51.104;-115.370;2022-12-24T00:28:14;86379.20;;;22.10
74536;BMP180;63013;51.104;-115.370;2022-12-24T00:30:42;86374.60;;;22.10
74536;BMP180;63013;51.104;-115.370;2022-12-24T00:33:10;86390.40;;;22.10
74536;BMP180;63013;51.104;-115.370;2022-12-24T00:35:38;86396.20;;;22.10
74536;BMP180;63013;51.104;-115.370;2022-12-24T00:38:07;86396.40;;;22.20
74536;BMP180;63013;51.104;-115.370;2022-12-24T00:40:34;86401.40;;;22.20
74536;BMP180;63013;51.104;-115.370;2022-12-24T00:43:02;86402.80;;;22.20
74536;BMP180;63013;51.104;-115.370;2022-12-24T00:45:29;86415.80;;;22.20
74536;BMP180;63013;51.104;-115.370;2022-12-24T00:47:56;86407.20;;;22.20
74536;BMP180;63013;51.104;-115.370;2022-12-24T00:50:23;86408.20;;;22.20
74536;BMP180;63013;51.104;-115.370;2022-12-24T00:52:50;86413.60;;;22.20
74536;BMP180;63013;51.104;-115.370;2022-12-24T00:55:17;86400.00;;;22.20
74536;BMP180;63013;51.104;-115.370;2022-12-24T00:57:45;86422.20;;;22.30
74536;BMP180;63013;51.104;-115.370;2022-12-24T01:00:12;86402.80;;;22.30
74536;BMP180;63013;51.104;-115.370;2022-12-24T01:02:41;86405.20;;;22.30
74536;BMP180;63013;51.104;-115.370;2022-12-24T01:05:10;86403.60;;;22.34
74536;BMP180;63013;51.104;-115.370;2022-12-24T01:07:41;86399.80;;;22.32
74536;BMP180;63013;51.104;-115.370;2022-12-24T01:10:14;86408.20;;;22.30
74536;BMP180;63013;51.104;-115.370;2022-12-24T01:12:42;86395.40;;;22.32
74536;BMP180;63013;51.104;-115.370;2022-12-24T01:15:11;86389.80;;;22.30
74536;BMP180;63013;51.104;-115.370;2022-12-24T01:17:39;86390.20;;;22.30
74536;BMP180;63013;51.104;-115.370;2022-12-24T01:20:12;86403.00;;;22.30
74536;BMP180;63013;51.104;-115.370;2022-12-24T01:22:40;86403.40;;;22.30
74536;BMP180;63013;51.104;-115.370;2022-12-24T01:25:08;86405.80;;;22.34
74536;BMP180;63013;51.104;-115.370;2022-12-24T01:27:36;86409.80;;;22.40
74536;BMP180;63013;51.104;-115.370;2022-12-24T01:30:07;86408.80;;;22.40
74536;BMP180;63013;51.104;-115.370;2022-12-24T01:32:35;86406.40;;;22.40
74536;BMP180;63013;51.104;-115.370;2022-12-24T01:35:02;86412.80;;;22.40
74536;BMP180;63013;51.104;-115.370;2022-12-24T01:37:29;86416.80;;;22.40
74536;BMP180;63013;51.104;-115.370;2022-12-24T01:39:56;86422.00;;;22.40
74536;BMP180;63013;51.104;-115.370;2022-12-24T01:42:48;86437.20;;;22.40
74536;BMP180;63013;51.104;-115.370;2022-12-24T01:45:44;86436.00;;;22.40
74536;BMP180;63013;51.104;-115.370;2022-12-24T01:50:42;86444.00;;;22.40
74536;BMP180;63013;51.104;-115.370;2022-12-24T01:53:10;86448.40;;;22.40
74536;BMP180;63013;51.104;-115.370;2022-12-24T01:55:39;86455.00;;;22.40
74536;BMP180;63013;51.104;-115.370;2022-12-24T01:58:08;86453.40;;;22.38
74536;BMP180;63013;51.104;-115.370;2022-12-24T02:00:37;86457.20;;;22.40
74536;BMP180;63013;51.104;-115.370;2022-12-24T02:03:04;86450.20;;;22.38
74536;BMP180;63013;51.104;-115.370;2022-12-24T02:05:49;86453.60;;;22.40
74536;BMP180;63013;51.104;-115.370;2022-12-24T02:08:18;86460.60;;;22.40
74536;BMP180;63013;51.104;-115.370;2022-12-24T02:10:47;86487.80;;;22.42
74536;BMP180;63013;51.104;-115.370;2022-12-24T02:13:18;86467.00;;;22.44
74536;BMP180;63013;51.104;-115.370;2022-12-24T02:16:07;86477.60;;;22.48
74536;BMP180;63013;51.104;-115.370;2022-12-24T02:22:01;86477.20;;;22.42
74536;BMP180;63013;51.104;-115.370;2022-12-24T02:28:20;86492.80;;;22.40
74536;BMP180;63013;51.104;-115.370;2022-12-24T02:31:04;86502.60;;;22.50
74536;BMP180;63013;51.104;-115.370;2022-12-24T02:33:58;86502.80;;;22.50
74536;BMP180;63013;51.104;-115.370;2022-12-24T02:36:52;86499.00;;;22.52
74536;BMP180;63013;51.104;-115.370;2022-12-24T02:39:38;86491.60;;;22.60
74536;BMP180;63013;51.104;-115.370;2022-12-24T02:42:11;86497.40;;;22.60
74536;BMP180;63013;51.104;-115.370;2022-12-24T02:45:01;86501.40;;;22.62
74536;BMP180;63013;51.104;-115.370;2022-12-24T02:47:29;86534.00;;;22.62
74536;BMP180;63013;51.104;-115.370;2022-12-24T02:50:00;86518.60;;;22.60
74536;BMP180;63013;51.104;-115.370;2022-12-24T02:52:36;86525.00;;;22.60
74536;BMP180;63013;51.104;-115.370;2022-12-24T02:55:43;86536.80;;;22.60
74536;BMP180;63013;51.104;-115.370;2022-12-24T03:01:28;86537.00;;;22.60
74536;BMP180;63013;51.104;-115.370;2022-12-24T03:07:36;86549.00;;;22.70
74536;BMP180;63013;51.104;-115.370;2022-12-24T03:10:13;86553.80;;;22.76
74536;BMP180;63013;51.104;-115.370;2022-12-24T03:12:47;86560.40;;;22.80
74536;BMP180;63013;51.104;-115.370;2022-12-24T03:15:22;86565.20;;;22.80
74536;BMP180;63013;51.104;-115.370;2022-12-24T03:17:53;86576.80;;;22.80
74536;BMP180;63013;51.104;-115.370;2022-12-24T03:20:41;86578.80;;;22.80
74536;BMP180;63013;51.104;-115.370;2022-12-24T03:23:09;86595.60;;;22.80
74536;BMP180;63013;51.104;-115.370;2022-12-24T03:25:41;86592.40;;;22.80
74536;BMP180;63013;51.104;-115.370;2022-12-24T03:28:12;86603.00;;;22.80
74536;BMP180;63013;51.104;-115.370;2022-12-24T03:30:46;86604.20;;;22.80
74536;BMP180;63013;51.104;-115.370;2022-12-24T03:33:15;86597.40;;;22.80
74536;BMP180;63013;51.104;-115.370;2022-12-24T03:35:42;86614.00;;;22.80
74536;BMP180;63013;51.104;-115.370;2022-12-24T03:38:10;86607.00;;;22.80
74536;BMP180;63013;51.104;-115.370;2022-12-24T03:40:37;86593.60;;;22.78
74536;BMP180;63013;51.104;-115.370;2022-12-24T03:43:04;86604.20;;;22.76
74536;BMP180;63013;51.104;-115.370;2022-12-24T03:45:31;86604.80;;;22.72
74536;BMP180;63013;51.104;-115.370;2022-12-24T03:47:59;86610.60;;;22.70
74536;BMP180;63013;51.104;-115.370;2022-12-24T03:50:26;86609.40;;;22.70
74536;BMP180;63013;51.104;-115.370;2022-12-24T03:52:54;86616.20;;;22.70
74536;BMP180;63013;51.104;-115.370;2022-12-24T03:55:22;86617.60;;;22.70
74536;BMP180;63013;51.104;-115.370;2022-12-24T03:57:49;86625.00;;;22.70
74536;BMP180;63013;51.104;-115.370;2022-12-24T04:00:17;86607.60;;;22.70
74536;BMP180;63013;51.104;-115.370;2022-12-24T04:02:45;86620.20;;;22.70
74536;BMP180;63013;51.104;-115.370;2022-12-24T04:05:18;86622.20;;;22.70
74536;BMP180;63013;51.104;-115.370;2022-12-24T04:07:46;86625.40;;;22.70
74536;BMP180;63013;51.104;-115.370;2022-12-24T04:10:15;86631.20;;;22.70
74536;BMP180;63013;51.104;-115.370;2022-12-24T04:12:42;86656.80;;;22.70
74536;BMP180;63013;51.104;-115.370;2022-12-24T04:15:11;86636.80;;;22.70
74536;BMP180;63013;51.104;-115.370;2022-12-24T04:17:38;86665.80;;;22.68
74536;BMP180;63013;51.104;-115.370;2022-12-24T04:20:06;86653.80;;;22.66
74536;BMP180;63013;51.104;-115.370;2022-12-24T04:22:33;86659.20;;;22.60
74536;BMP180;63013;51.104;-115.370;2022-12-24T04:25:00;86671.20;;;22.60
74536;BMP180;63013;51.104;-115.370;2022-12-24T04:27:27;86655.40;;;22.60
74536;BMP180;63013;51.104;-115.370;2022-12-24T04:29:56;86672.80;;;22.60
74536;BMP180;63013;51.104;-115.370;2022-12-24T04:32:26;86669.40;;;22.60
74536;BMP180;63013;51.104;-115.370;2022-12-24T04:34:53;86663.40;;;22.60
74536;BMP180;63013;51.104;-115.370;2022-12-24T04:37:20;86671.20;;;22.58
74536;BMP180;63013;51.104;-115.370;2022-12-24T04:39:47;86654.60;;;22.50
74536;BMP180;63013;51.104;-115.370;2022-12-24T04:42:15;86672.00;;;22.50
74536;BMP180;63013;51.104;-115.370;2022-12-24T04:44:42;86668.00;;;22.50
74536;BMP180;63013;51.104;-115.370;2022-12-24T04:47:09;86674.80;;;22.50
74536;BMP180;63013;51.104;-115.370;2022-12-24T04:49:36;86666.60;;;22.50
74536;BMP180;63013;51.104;-115.370;2022-12-24T04:52:03;86658.40;;;22.46
74536;BMP180;63013;51.104;-115.370;2022-12-24T04:54:31;86650.40;;;22.40
74536;BMP180;63013;51.104;-115.370;2022-12-24T04:56:58;86659.60;;;22.40
74536;BMP180;63013;51.104;-115.370;2022-12-24T04:59:25;86684.00;;;22.40
74536;BMP180;63013;51.104;-115.370;2022-12-24T05:01:52;86676.60;;;22.40
74536;BMP180;63013;51.104;-115.370;2022-12-24T05:04:19;86683.80;;;22.36
74536;BMP180;63013;51.104;-115.370;2022-12-24T05:06:47;86685.60;;;22.30
74536;BMP180;63013;51.104;-115.370;2022-12-24T05:09:14;86708.20;;;22.30
74536;BMP180;63013;51.104;-115.370;2022-12-24T05:11:41;86708.60;;;22.30
74536;BMP180;63013;51.104;-115.370;2022-12-24T05:14:08;86708.40;;;22.30
74536;BMP180;63013;51.104;-115.370;2022-12-24T05:16:35;86714.80;;;22.24
74536;BMP180;63013;51.104;-115.370;2022-12-24T05:19:04;86693.60;;;22.20
74536;BMP180;63013;51.104;-115.370;2022-12-24T05:21:31;86676.00;;;22.20
74536;BMP180;63013;51.104;-115.370;2022-12-24T05:23:58;86675.20;;;22.20
74536;BMP180;63013;51.104;-115.370;2022-12-24T05:26:55;86658.00;;;22.20
74536;BMP180;63013;51.104;-115.370;2022-12-24T05:29:23;86656.60;;;22.10
74536;BMP180;63013;51.104;-115.370;2022-12-24T05:31:50;86663.60;;;22.10
74536;BMP180;63013;51.104;-115.370;2022-12-24T05:34:17;86685.20;;;22.10
74536;BMP180;63013;51.104;-115.370;2022-12-24T05:36:45;86687.60;;;22.10
74536;BMP180;63013;51.104;-115.370;2022-12-24T05:39:16;86696.60;;;22.10
74536;BMP180;63013;51.104;-115.370;2022-12-24T05:41:44;86706.00;;;22.04
74536;BMP180;63013;51.104;-115.370;2022-12-24T05:44:12;86695.80;;;22.00
74536;BMP180;63013;51.104;-115.370;2022-12-24T05:46:40;86702.40;;;22.00
74536;BMP180;63013;51.104;-115.370;2022-12-24T05:49:07;86692.60;;;22.00
74536;BMP180;63013;51.104;-115.370;2022-12-24T05:51:35;86694.80;;;22.00
74536;BMP180;63013;51.104;-115.370;2022-12-24T05:54:02;86703.40;;;22.00
74536;BMP180;63013;51.104;-115.370;2022-12-24T05:56:30;86696.00;;;21.90
74536;BMP180;63013;51.104;-115.370;2022-12-24T05:58:57;86719.00;;;21.90
74536;BMP180;63013;51.104;-115.370;2022-12-24T06:01:25;86713.00;;;21.90
74536;BMP180;63013;51.104;-115.370;2022-12-24T06:03:52;86726.20;;;21.90
74536;BMP180;63013;51.104;-115.370;2022-12-24T06:06:25;86716.80;;;21.90
74536;BMP180;63013;51.104;-115.370;2022-12-24T06:08:54;86702.00;;;21.84
74536;BMP180;63013;51.104;-115.370;2022-12-24T06:11:25;86725.80;;;21.80
74536;BMP180;63013;51.104;-115.370;2022-12-24T06:13:54;86739.00;;;21.80
74536;BMP180;63013;51.104;-115.370;2022-12-24T06:16:23;86730.40;;;21.80
74536;BMP180;63013;51.104;-115.370;2022-12-24T06:18:51;86752.60;;;21.80
74536;BMP180;63013;51.104;-115.370;2022-12-24T06:21:18;86766.00;;;21.72
74536;BMP180;63013;51.104;-115.370;2022-12-24T06:23:46;86753.00;;;21.70
74536;BMP180;63013;51.104;-115.370;2022-12-24T06:26:17;86752.20;;;21.70
74536;BMP180;63013;51.104;-115.370;2022-12-24T06:28:47;86748.00;;;21.70
74536;BMP180;63013;51.104;-115.370;2022-12-24T06:31:18;86770.00;;;21.64
74536;BMP180;63013;51.104;-115.370;2022-12-24T06:33:46;86754.00;;;21.60
74536;BMP180;63013;51.104;-115.370;2022-12-24T06:36:19;86773.60;;;21.60
74536;BMP180;63013;51.104;-115.370;2022-12-24T06:38:47;86795.60;;;21.60
74536;BMP180;63013;51.104;-115.370;2022-12-24T06:41:16;86798.00;;;21.60
74536;BMP180;63013;51.104;-115.370;2022-12-24T06:43:46;86784.20;;;21.56
74536;BMP180;63013;51.104;-115.370;2022-12-24T06:46:14;86781.20;;;21.50
74536;BMP180;63013;51.104;-115.370;2022-12-24T06:48:43;86797.00;;;21.50
74536;BMP180;63013;51.104;-115.370;2022-12-24T06:51:12;86781.40;;;21.50
74536;BMP180;63013;51.104;-115.370;2022-12-24T06:53:40;86815.60;;;21.50
74536;BMP180;63013;51.104;-115.370;2022-12-24T06:56:11;86816.60;;;21.40
74536;BMP180;63013;51.104;-115.370;2022-12-24T06:58:39;86796.80;;;21.40
74536;BMP180;63013;51.104;-115.370;2022-12-24T07:01:11;86781.40;;;21.40
74536;BMP180;63013;51.104;-115.370;2022-12-24T07:03:39;86806.00;;;21.40
74536;BMP180;63013;51.104;-115.370;2022-12-24T07:06:10;86788.00;;;21.38
74536;BMP180;63013;51.104;-115.370;2022-12-24T07:08:41;86784.20;;;21.30
74536;BMP180;63013;51.104;-115.370;2022-12-24T07:11:08;86767.40;;;21.30
74536;BMP180;63013;51.104;-115.370;2022-12-24T07:13:35;86793.40;;;21.30
74536;BMP180;63013;51.104;-115.370;2022-12-24T07:16:04;86785.40;;;21.30
74536;BMP180;63013;51.104;-115.370;2022-12-24T07:18:31;86779.60;;;21.26
74536;BMP180;63013;51.104;-115.370;2022-12-24T07:20:59;86781.80;;;21.20
74536;BMP180;63013;51.104;-115.370;2022-12-24T07:23:26;86793.60;;;21.20
74536;BMP180;63013;51.104;-115.370;2022-12-24T07:25:53;86795.00;;;21.20
74536;BMP180;63013;51.104;-115.370;2022-12-24T07:28:20;86821.40;;;21.20
74536;BMP180;63013;51.104;-115.370;2022-12-24T07:30:48;86799.60;;;21.16
74536;BMP180;63013;51.104;-115.370;2022-12-24T07:33:15;86804.80;;;21.10
74536;BMP180;63013;51.104;-115.370;2022-12-24T07:35:42;86800.00;;;21.10
74536;BMP180;63013;51.104;-115.370;2022-12-24T07:38:09;86799.20;;;21.10
74536;BMP180;63013;51.104;-115.370;2022-12-24T07:40:37;86817.40;;;21.10
74536;BMP180;63013;51.104;-115.370;2022-12-24T07:43:04;86810.00;;;21.10
74536;BMP180;63013;51.104;-115.370;2022-12-24T07:45:31;86818.80;;;21.02
74536;BMP180;63013;51.104;-115.370;2022-12-24T07:47:58;86790.80;;;21.00
74536;BMP180;63013;51.104;-115.370;2022-12-24T07:50:25;86799.20;;;21.00
74536;BMP180;63013;51.104;-115.370;2022-12-24T07:52:52;86792.00;;;21.00
74536;BMP180;63013;51.104;-115.370;2022-12-24T07:55:19;86820.00;;;20.90
74536;BMP180;63013;51.104;-115.370;2022-12-24T07:57:47;86790.00;;;20.90
74536;BMP180;63013;51.104;-115.370;2022-12-24T08:00:14;86815.20;;;20.90
74536;BMP180;63013;51.104;-115.370;2022-12-24T08:02:41;86802.00;;;20.90
74536;BMP180;63013;51.104;-115.370;2022-12-24T08:05:09;86821.80;;;20.90
74536;BMP180;63013;51.104;-115.370;2022-12-24T08:07:35;86814.20;;;20.80
74536;BMP180;63013;51.104;-115.370;2022-12-24T08:10:03;86831.40;;;20.80
74536;BMP180;63013;51.104;-115.370;2022-12-24T08:12:31;86841.60;;;20.80
74536;BMP180;63013;51.104;-115.370;2022-12-24T08:14:58;86849.80;;;20.80
74536;BMP180;63013;51.104;-115.370;2022-12-24T08:17:25;86837.20;;;20.78
74536;BMP180;63013;51.104;-115.370;2022-12-24T08:19:52;86849.00;;;20.70
74536;BMP180;63013;51.104;-115.370;2022-12-24T08:22:20;86846.00;;;20.70
74536;BMP180;63013;51.104;-115.370;2022-12-24T08:24:46;86893.00;;;20.70
74536;BMP180;63013;51.104;-115.370;2022-12-24T08:27:14;86852.60;;;20.70
74536;BMP180;63013;51.104;-115.370;2022-12-24T08:29:41;86870.20;;;20.70
74536;BMP180;63013;51.104;-115.370;2022-12-24T08:32:08;86873.40;;;20.64
74536;BMP180;63013;51.104;-115.370;2022-12-24T08:34:35;86867.40;;;20.60
74536;BMP180;63013;51.104;-115.370;2022-12-24T08:37:02;86884.80;;;20.60
74536;BMP180;63013;51.104;-115.370;2022-12-24T08:39:30;86901.60;;;20.60
74536;BMP180;63013;51.104;-115.370;2022-12-24T08:41:57;86875.20;;;20.60
74536;BMP180;63013;51.104;-115.370;2022-12-24T08:44:24;86865.00;;;20.50
74536;BMP180;63013;51.104;-115.370;2022-12-24T08:46:51;86887.00;;;20.50
74536;BMP180;63013;51.104;-115.370;2022-12-24T08:49:18;86868.20;;;20.50
74536;BMP180;63013;51.104;-115.370;2022-12-24T08:51:46;86896.60;;;20.50
74536;BMP180;63013;51.104;-115.370;2022-12-24T08:54:14;86924.20;;;20.42
74536;BMP180;63013;51.104;-115.370;2022-12-24T08:56:41;86907.40;;;20.40
74536;BMP180;63013;51.104;-115.370;2022-12-24T08:59:11;86894.60;;;20.40
74536;BMP180;63013;51.104;-115.370;2022-12-24T09:01:38;86900.40;;;20.40
74536;BMP180;63013;51.104;-115.370;2022-12-24T09:04:05;86883.80;;;20.38
74536;BMP180;63013;51.104;-115.370;2022-12-24T09:06:32;86877.40;;;20.34
74536;BMP180;63013;51.104;-115.370;2022-12-24T09:08:59;86871.80;;;20.30
74536;BMP180;63013;51.104;-115.370;2022-12-24T09:11:27;86883.80;;;20.30
74536;BMP180;63013;51.104;-115.370;2022-12-24T09:13:54;86898.80;;;20.30
74536;BMP180;63013;51.104;-115.370;2022-12-24T09:16:22;86897.20;;;20.30
74536;BMP180;63013;51.104;-115.370;2022-12-24T09:18:49;86884.60;;;20.22
74536;BMP180;63013;51.104;-115.370;2022-12-24T09:21:16;86874.60;;;20.20
74536;BMP180;63013;51.104;-115.370;2022-12-24T09:23:47;86926.40;;;20.20
74536;BMP180;63013;51.104;-115.370;2022-12-24T09:26:23;86883.00;;;20.20
74536;BMP180;63013;51.104;-115.370;2022-12-24T09:28:52;86910.80;;;20.20
74536;BMP180;63013;51.104;-115.370;2022-12-24T09:31:19;86915.80;;;20.18
74536;BMP180;63013;51.104;-115.370;2022-12-24T09:33:49;86901.20;;;20.10
74536;BMP180;63013;51.104;-115.370;2022-12-24T09:36:17;86910.80;;;20.10
74536;BMP180;63013;51.104;-115.370;2022-12-24T09:38:45;86891.00;;;20.10
74536;BMP180;63013;51.104;-115.370;2022-12-24T09:41:23;86904.00;;;20.10
74536;BMP180;63013;51.104;-115.370;2022-12-24T09:44:03;86877.40;;;20.10
74536;BMP180;63013;51.104;-115.370;2022-12-24T09:46:40;86909.40;;;20.00
74536;BMP180;63013;51.104;-115.370;2022-12-24T09:49:17;86905.40;;;20.00
74536;BMP180;63013;51.104;-115.370;2022-12-24T09:52:15;86903.20;;;20.00
74536;BMP180;63013;51.104;-115.370;2022-12-24T09:55:42;86902.00;;;20.00
74536;BMP180;63013;51.104;-115.370;2022-12-24T09:57:45;86898.40;;;20.00
74536;BMP180;63013;51.104;-115.370;2022-12-24T10:00:27;86914.40;;;19.96
74536;BMP180;63013;51.104;-115.370;2022-12-24T10:02:55;86897.60;;;19.90
74536;BMP180;63013;51.104;-115.370;2022-12-24T10:05:47;86896.80;;;19.90
74536;BMP180;63013;51.104;-115.370;2022-12-24T10:21:05;86934.80;;;19.80
74536;BMP180;63013;51.104;-115.370;2022-12-24T10:23:56;86944.40;;;19.80
74536;BMP180;63013;51.104;-115.370;2022-12-24T10:26:38;86941.20;;;19.74
74536;BMP180;63013;51.104;-115.370;2022-12-24T10:29:20;86948.00;;;19.70
74536;BMP180;63013;51.104;-115.370;2022-12-24T10:34:47;86944.00;;;19.70
74536;BMP180;63013;51.104;-115.370;2022-12-24T10:37:24;86942.00;;;19.66
74536;BMP180;63013;51.104;-115.370;2022-12-24T10:39:56;86949.40;;;19.60
74536;BMP180;63013;51.104;-115.370;2022-12-24T10:42:38;86946.60;;;19.60
74536;BMP180;63013;51.104;-115.370;2022-12-24T10:45:16;86956.40;;;19.60
74536;BMP180;63013;51.104;-115.370;2022-12-24T10:47:48;86925.80;;;19.60
74536;BMP180;63013;51.104;-115.370;2022-12-24T10:50:51;86920.20;;;19.52
74536;BMP180;63013;51.104;-115.370;2022-12-24T10:56:10;86945.60;;;19.50
74536;BMP180;63013;51.104;-115.370;2022-12-24T10:58:44;86935.40;;;19.50
74536;BMP180;63013;51.104;-115.370;2022-12-24T11:01:13;86937.60;;;19.50
74536;BMP180;63013;51.104;-115.370;2022-12-24T11:03:40;86940.60;;;19.40
74536;BMP180;63013;51.104;-115.370;2022-12-24T11:06:09;86929.20;;;19.40
74536;BMP180;63013;51.104;-115.370;2022-12-24T11:08:44;86929.60;;;19.40
74536;BMP180;63013;51.104;-115.370;2022-12-24T11:11:18;86907.60;;;19.40
74536;BMP180;63013;51.104;-115.370;2022-12-24T11:16:36;86914.60;;;19.30
74536;BMP180;63013;51.104;-115.370;2022-12-24T11:19:05;86937.80;;;19.30
74536;BMP180;63013;51.104;-115.370;2022-12-24T11:21:41;86954.20;;;19.30
74536;BMP180;63013;51.104;-115.370;2022-12-24T11:24:27;86926.00;;;19.30
74536;BMP180;63013;51.104;-115.370;2022-12-24T11:27:28;86928.60;;;19.30
74536;BMP180;63013;51.104;-115.370;2022-12-24T11:30:25;86919.00;;;19.20
74536;BMP180;63013;51.104;-115.370;2022-12-24T11:35:32;86926.80;;;19.20
74536;BMP180;63013;51.104;-115.370;2022-12-24T11:40:56;86930.20;;;19.20
74536;BMP180;63013;51.104;-115.370;2022-12-24T11:43:24;86942.80;;;19.18
74536;BMP180;63013;51.104;-115.370;2022-12-24T11:46:41;86946.00;;;19.10
74536;BMP180;63013;51.104;-115.370;2022-12-24T11:49:29;86942.40;;;19.10
74536;BMP180;63013;51.104;-115.370;2022-12-24T11:52:15;86951.20;;;19.10
74536;BMP180;63013;51.104;-115.370;2022-12-24T11:58:20;86982.80;;;19.10
74536;BMP180;63013;51.104;-115.370;2022-12-24T12:00:28;86988.60;;;19.02
74536;BMP180;63013;51.104;-115.370;2022-12-24T12:02:59;87000.80;;;19.00
74536;BMP180;63013;51.104;-115.370;2022-12-24T12:05:32;86994.80;;;19.00
74536;BMP180;63013;51.104;-115.370;2022-12-24T12:08:20;86999.60;;;19.00
74536;BMP180;63013;51.104;-115.370;2022-12-24T12:10:50;87008.40;;;18.98
74536;BMP180;63013;51.104;-115.370;2022-12-24T12:13:28;87015.80;;;18.90
74536;BMP180;63013;51.104;-115.370;2022-12-24T12:16:25;87019.40;;;18.90
74536;BMP180;63013;51.104;-115.370;2022-12-24T12:19:03;87008.60;;;18.90
74536;BMP180;63013;51.104;-115.370;2022-12-24T12:21:44;87015.00;;;18.90
74536;BMP180;63013;51.104;-115.370;2022-12-24T12:24:33;87011.20;;;18.90
74536;BMP180;63013;51.104;-115.370;2022-12-24T12:30:17;87015.00;;;18.80
74536;BMP180;63013;51.104;-115.370;2022-12-24T12:35:37;87030.20;;;18.80
74536;BMP180;63013;51.104;-115.370;2022-12-24T12:38:22;87027.00;;;18.74
74536;BMP180;63013;51.104;-115.370;2022-12-24T12:41:01;87027.00;;;18.70
74536;BMP180;63013;51.104;-115.370;2022-12-24T12:46:29;87029.80;;;18.70
74536;BMP180;63013;51.104;-115.370;2022-12-24T13:01:19;87029.60;;;18.60
74536;BMP180;63013;51.104;-115.370;2022-12-24T13:04:20;87041.80;;;18.60
74536;BMP180;63013;51.104;-115.370;2022-12-24T13:11:05;87051.00;;;18.50
74536;BMP180;63013;51.104;-115.370;2022-12-24T13:13:47;87043.40;;;18.50
74536;BMP180;63013;51.104;-115.370;2022-12-24T13:22:18;87034.20;;;18.40
74536;BMP180;63013;51.104;-115.370;2022-12-24T13:24:53;87041.20;;;18.40
74536;BMP180;63013;51.104;-115.370;2022-12-24T13:27:33;87034.60;;;18.40
74536;BMP180;63013;51.104;-115.370;2022-12-24T13:30:38;87029.40;;;18.40
74536;BMP180;63013;51.104;-115.370;2022-12-24T13:33:11;87024.80;;;18.40
74536;BMP180;63013;51.104;-115.370;2022-12-24T13:36:02;87037.60;;;18.40
74536;BMP180;63013;51.104;-115.370;2022-12-24T13:38:48;87042.20;;;18.30
74536;BMP180;63013;51.104;-115.370;2022-12-24T13:49:47;87077.80;;;18.30
74536;BMP180;63013;51.104;-115.370;2022-12-24T13:52:32;87088.20;;;18.30
74536;BMP180;63013;51.104;-115.370;2022-12-24T13:55:11;87103.40;;;18.30
74536;BMP180;63013;51.104;-115.370;2022-12-24T13:58:03;87102.40;;;18.34
74536;BMP180;63013;51.104;-115.370;2022-12-24T14:00:43;87092.60;;;18.40
74536;BMP180;63013;51.104;-115.370;2022-12-24T14:03:50;87091.60;;;18.40
74536;BMP180;63013;51.104;-115.370;2022-12-24T14:06:36;87105.40;;;18.40
74536;BMP180;63013;51.104;-115.370;2022-12-24T14:09:16;87088.00;;;18.44
74536;BMP180;63013;51.104;-115.370;2022-12-24T14:14:38;87107.60;;;18.50
74536;BMP180;63013;51.104;-115.370;2022-12-24T14:17:23;87106.20;;;18.52
74536;BMP180;63013;51.104;-115.370;2022-12-24T14:20:01;87097.60;;;18.60
74536;BMP180;63013;51.104;-115.370;2022-12-24T14:22:41;87096.60;;;18.60
74536;BMP180;63013;51.104;-115.370;2022-12-24T14:25:18;87109.20;;;18.70
74536;BMP180;63013;51.104;-115.370;2022-12-24T14:28:10;87105.40;;;18.70
74536;BMP180;63013;51.104;-115.370;2022-12-24T14:30:42;87099.60;;;18.70
74536;BMP180;63013;51.104;-115.370;2022-12-24T14:33:32;87103.80;;;18.80
74536;BMP180;63013;51.104;-115.370;2022-12-24T14:36:01;87111.20;;;18.80
74536;BMP180;63013;51.104;-115.370;2022-12-24T14:38:29;87109.00;;;18.86
74536;BMP180;63013;51.104;-115.370;2022-12-24T14:41:55;87103.00;;;18.90
74536;BMP180;63013;51.104;-115.370;2022-12-24T14:47:43;87100.80;;;19.00
74536;BMP180;63013;51.104;-115.370;2022-12-24T14:50:56;87098.00;;;19.02
74536;BMP180;63013;51.104;-115.370;2022-12-24T14:53:44;87082.60;;;19.10
74536;BMP180;63013;51.104;-115.370;2022-12-24T14:56:20;87094.40;;;19.12
74536;BMP180;63013;51.104;-115.370;2022-12-24T14:58:48;87117.60;;;19.20
74536;BMP180;63013;51.104;-115.370;2022-12-24T15:01:26;87110.40;;;19.20
74536;BMP180;63013;51.104;-115.370;2022-12-24T15:04:14;87104.60;;;19.30
74536;BMP180;63013;51.104;-115.370;2022-12-24T15:06:53;87097.60;;;19.36
74536;BMP180;63013;51.104;-115.370;2022-12-24T15:09:30;87124.40;;;19.40
74536;BMP180;63013;51.104;-115.370;2022-12-24T15:12:01;87129.80;;;19.50
74536;BMP180;63013;51.104;-115.370;2022-12-24T15:14:41;87121.00;;;19.50
74536;BMP180;63013;51.104;-115.370;2022-12-24T15:17:12;87120.60;;;19.60
74536;BMP180;63013;51.104;-115.370;2022-12-24T15:19:44;87118.40;;;19.62
74536;BMP180;63013;51.104;-115.370;2022-12-24T15:22:32;87120.20;;;19.70
74536;BMP180;63013;51.104;-115.370;2022-12-24T15:25:00;87135.00;;;19.72
74536;BMP180;63013;51.104;-115.370;2022-12-24T15:27:32;87132.20;;;19.80
74536;BMP180;63013;51.104;-115.370;2022-12-24T15:30:18;87133.00;;;19.82
74536;BMP180;63013;51.104;-115.370;2022-12-24T15:32:46;87125.60;;;19.90
74536;BMP180;63013;51.104;-115.370;2022-12-24T15:35:54;87138.60;;;19.98